Time;durP1;ratioP1;P1;durP2;ratioP2;P2;SDS_P1;SDS_P2;PMS_P1;PMS_P2;Temp;Humidity;BMP_temperature;BMP_pressure;BME280_temperature;BME280_humidity;BME280_pressure;Samples;Min_cycle;Max_cycle;Signal;HPM_P1;HPM_P2
2021/10/12 00:02:08;;;;;;;3.08;1.20;;;12.40;91.90;;;;;;5011789;28;20097;-63
2021/10/12 00:04:34;;;;;;;3.22;1.00;;;12.40;92.00;;;;;;5014842;28;20100;-63
2021/10/12 00:07:00;;;;;;;4.93;1.05;;;12.40;92.00;;;;;;5012261;28;20026;-63
2021/10/12 00:09:25;;;;;;;3.10;1.02;;;12.40;92.10;;;;;;5017077;28;20030;-63
2021/10/12 00:11:52;;;;;;;4.13;1.10;;;12.40;92.10;;;;;;5014655;28;20373;-63
2021/10/12 00:14:19;;;;;;;5.15;1.20;;;12.40;92.20;;;;;;5011708;28;20045;-63
2021/10/12 00:16:44;;;;;;;4.13;1.08;;;12.40;92.20;;;;;;5011870;28;20057;-63
2021/10/12 00:19:10;;;;;;;3.03;1.10;;;12.40;92.30;;;;;;5014465;28;20045;-63
2021/10/12 00:21:35;;;;;;;2.65;1.00;;;12.40;92.30;;;;;;5026657;28;20052;-63
2021/10/12 00:24:03;;;;;;;3.38;1.00;;;12.40;92.40;;;;;;5024776;28;20462;-63
2021/10/12 00:26:28;;;;;;;4.03;1.30;;;12.40;92.40;;;;;;5026723;28;20018;-62
2021/10/12 00:28:54;;;;;;;3.13;0.93;;;12.40;92.40;;;;;;5011692;28;20029;-63
2021/10/12 00:31:20;;;;;;;5.53;1.27;;;12.40;92.50;;;;;;5014240;28;20029;-63
2021/10/12 00:33:45;;;;;;;3.83;1.05;;;12.30;92.50;;;;;;5014159;28;20018;-63
2021/10/12 00:36:11;;;;;;;4.43;1.63;;;12.30;92.60;;;;;;5011230;28;20474;-63
2021/10/12 00:38:36;;;;;;;2.38;1.15;;;12.30;92.70;;;;;;5026602;28;20465;-63
2021/10/12 00:41:05;;;;;;;3.15;1.00;;;12.30;92.80;;;;;;5023621;28;20111;-63
2021/10/12 00:43:30;;;;;;;4.20;1.10;;;12.30;93.10;;;;;;5029090;28;20017;-63
2021/10/12 00:45:57;;;;;;;2.58;0.90;;;12.30;92.90;;;;;;5023737;28;20033;-63
2021/10/12 00:48:23;;;;;;;1.27;0.95;;;12.20;93.00;;;;;;5014200;28;20485;-63
2021/10/12 00:50:49;;;;;;;2.80;1.00;;;12.20;93.00;;;;;;5016375;28;20529;-63
2021/10/12 00:53:15;;;;;;;1.95;0.90;;;12.20;93.10;;;;;;5016643;28;20053;-62
2021/10/12 00:55:41;;;;;;;2.40;1.00;;;12.30;93.20;;;;;;5026435;28;20025;-63
2021/10/12 00:58:09;;;;;;;3.95;1.17;;;12.30;93.50;;;;;;5010947;28;20101;-63
2021/10/12 01:00:36;;;;;;;4.07;1.50;;;12.30;93.20;;;;;;5011434;28;20017;-63
2021/10/12 01:03:02;;;;;;;3.58;0.90;;;12.20;93.20;;;;;;5015206;28;20482;-63
2021/10/12 01:05:28;;;;;;;3.58;1.25;;;12.30;93.30;;;;;;5010892;28;20088;-62
2021/10/12 01:10:46;;;;;;;3.63;1.08;;;12.20;93.30;;;;;;5009137;28;20069;-63
2021/10/12 01:13:11;;;;;;;3.35;1.27;;;12.10;93.50;;;;;;5010373;28;20026;-62
2021/10/12 01:15:37;;;;;;;2.53;1.10;;;12.10;93.60;;;;;;5015134;28;20072;-63
2021/10/12 01:18:09;;;;;;;3.00;1.00;;;12.10;93.70;;;;;;5027882;28;20014;-65
2021/10/12 01:20:37;;;;;;;4.72;1.70;;;12.10;93.80;;;;;;5011444;28;20030;-62
2021/10/12 01:23:02;;;;;;;5.63;1.95;;;12.00;94.10;;;;;;5009479;28;20073;-62
2021/10/12 01:25:28;;;;;;;3.30;1.15;;;11.90;94.40;;;;;;5016339;28;20425;-63
2021/10/12 01:27:53;;;;;;;5.53;1.48;;;11.90;94.40;;;;;;5013516;28;20026;-63
2021/10/12 01:30:19;;;;;;;5.47;1.60;;;11.80;94.60;;;;;;5009602;28;20114;-62
2021/10/12 01:32:46;;;;;;;3.78;1.70;;;11.80;94.70;;;;;;5016432;28;20114;-62
2021/10/12 01:35:13;;;;;;;3.25;1.30;;;11.80;94.80;;;;;;5012933;28;20080;-62
2021/10/12 01:37:39;;;;;;;3.03;0.98;;;11.80;94.80;;;;;;5010649;28;20061;-62
2021/10/12 01:40:07;;;;;;;2.78;1.10;;;11.80;94.90;;;;;;5025961;28;20052;-63
2021/10/12 01:42:32;;;;;;;8.32;1.65;;;11.80;94.90;;;;;;5014197;28;20112;-62
2021/10/12 01:44:59;;;;;;;2.53;1.02;;;11.80;94.90;;;;;;5015200;28;20098;-62
2021/10/12 01:47:25;;;;;;;3.17;0.93;;;11.80;94.90;;;;;;5016214;28;20553;-62
2021/10/12 01:49:51;;;;;;;2.70;1.00;;;11.80;95.00;;;;;;5014725;28;20099;-62
2021/10/12 01:52:16;;;;;;;2.35;0.90;;;11.80;95.00;;;;;;5017759;28;20114;-62
2021/10/12 01:54:42;;;;;;;4.03;0.95;;;11.90;94.90;;;;;;5017074;28;20029;-62
2021/10/12 01:57:08;;;;;;;2.22;0.80;;;11.90;95.00;;;;;;5025801;28;20382;-62
2021/10/12 01:59:33;;;;;;;4.40;0.80;;;11.90;94.90;;;;;;5015896;28;20072;-62
2021/10/12 02:02:01;;;;;;;4.40;0.80;;;11.90;95.20;;;;;;5024724;28;20041;-62
2021/10/12 02:04:31;;;;;;;3.22;0.85;;;11.90;94.90;;;;;;5013932;28;20105;-63
2021/10/12 02:06:56;;;;;;;5.25;1.30;;;11.90;94.90;;;;;;5029322;28;20041;-62
2021/10/12 02:09:22;;;;;;;5.07;0.75;;;11.90;94.90;;;;;;5013982;28;20042;-62
2021/10/12 02:11:47;;;;;;;4.18;0.98;;;11.90;94.80;;;;;;5028922;28;20021;-63
2021/10/12 02:14:22;;;;;;;3.67;0.75;;;12.00;94.90;;;;;;5012559;28;20025;-62
2021/10/12 02:16:48;;;;;;;4.32;0.98;;;12.00;94.90;;;;;;5015791;28;20018;-62
2021/10/12 02:19:14;;;;;;;5.72;0.82;;;12.00;94.90;;;;;;5016159;28;20025;-62
2021/10/12 02:21:39;;;;;;;4.22;0.90;;;12.00;94.90;;;;;;5013889;28;20046;-62
2021/10/12 02:24:05;;;;;;;3.47;0.70;;;12.00;95.00;;;;;;5026827;28;20103;-62
2021/10/12 02:26:30;;;;;;;4.63;0.73;;;12.00;95.10;;;;;;5028561;28;20018;-65
2021/10/12 02:28:56;;;;;;;5.00;1.08;;;12.00;95.10;;;;;;5026208;28;20088;-63
2021/10/12 02:31:22;;;;;;;5.70;1.10;;;12.00;95.10;;;;;;5016485;28;20081;-62
2021/10/12 02:33:47;;;;;;;5.53;0.80;;;12.00;95.30;;;;;;5012294;28;20627;-63
2021/10/12 02:36:13;;;;;;;6.22;0.75;;;12.00;95.20;;;;;;5025847;28;20049;-62
2021/10/12 02:38:39;;;;;;;5.82;1.10;;;12.00;95.20;;;;;;5015330;28;20054;-62
2021/10/12 02:41:05;;;;;;;3.33;0.70;;;12.00;95.30;;;;;;5013556;28;20365;-63
2021/10/12 02:43:30;;;;;;;4.47;1.10;;;11.90;95.30;;;;;;5030998;28;20023;-63
2021/10/12 02:45:56;;;;;;;4.53;1.00;;;11.90;95.40;;;;;;5028879;28;20454;-62
2021/10/12 02:48:21;;;;;;;7.22;0.75;;;11.90;95.40;;;;;;5013437;28;20076;-63
2021/10/12 02:50:47;;;;;;;4.05;0.82;;;11.90;95.70;;;;;;5012929;28;20410;-63
2021/10/12 02:53:14;;;;;;;2.53;0.90;;;11.90;95.40;;;;;;5030764;28;20120;-62
2021/10/12 02:55:39;;;;;;;5.93;0.70;;;11.90;95.40;;;;;;5028175;28;20068;-63
2021/10/12 02:58:05;;;;;;;3.67;0.70;;;11.90;95.30;;;;;;5029040;28;20506;-63
2021/10/12 03:00:31;;;;;;;6.88;0.95;;;11.90;95.30;;;;;;5018277;28;20024;-63
2021/10/12 03:02:59;;;;;;;5.93;0.60;;;11.90;95.30;;;;;;5011846;28;20076;-63
2021/10/12 03:05:25;;;;;;;2.65;0.50;;;11.90;95.30;;;;;;5028217;28;20045;-62
2021/10/12 03:07:51;;;;;;;3.00;0.60;;;11.90;95.30;;;;;;5014226;28;20489;-62
2021/10/12 03:10:16;;;;;;;3.75;0.82;;;11.90;95.20;;;;;;5012817;28;20030;-62
2021/10/12 03:12:42;;;;;;;3.90;0.75;;;11.90;95.30;;;;;;5021986;28;20028;-63
2021/10/12 03:15:08;;;;;;;4.07;0.47;;;11.90;95.30;;;;;;5012544;28;20112;-63
2021/10/12 03:17:33;;;;;;;4.90;0.60;;;11.90;95.30;;;;;;5012913;28;20018;-62
2021/10/12 03:19:59;;;;;;;2.92;0.60;;;11.90;95.30;;;;;;5027852;28;20018;-62
2021/10/12 03:22:25;;;;;;;3.95;0.90;;;11.80;95.30;;;;;;5011716;28;20030;-62
2021/10/12 03:24:50;;;;;;;3.88;0.75;;;11.80;95.30;;;;;;5014059;28;20100;-62
2021/10/12 03:27:16;;;;;;;3.42;0.60;;;11.80;95.30;;;;;;5027943;28;20481;-62
2021/10/12 03:29:42;;;;;;;2.38;0.40;;;11.80;95.30;;;;;;5015313;28;20032;-62
2021/10/12 03:32:08;;;;;;;3.72;0.60;;;11.80;95.30;;;;;;5015330;28;20028;-62
2021/10/12 03:34:34;;;;;;;5.05;0.90;;;11.80;95.30;;;;;;5013825;28;20521;-62
2021/10/12 03:37:00;;;;;;;1.40;0.50;;;11.80;95.30;;;;;;5024954;28;20114;-63
2021/10/12 03:39:27;;;;;;;3.53;0.63;;;11.80;95.40;;;;;;5012492;28;20036;-62
2021/10/12 03:41:53;;;;;;;4.80;0.70;;;11.70;95.40;;;;;;5027256;28;20018;-62
2021/10/12 03:44:20;;;;;;;3.47;0.43;;;11.80;95.40;;;;;;5035799;28;20034;-62
2021/10/12 03:46:45;;;;;;;4.13;1.00;;;11.70;95.40;;;;;;5027740;28;20469;-62
2021/10/12 03:49:11;;;;;;;2.97;1.10;;;11.80;95.50;;;;;;5024273;28;20017;-62
2021/10/12 03:51:37;;;;;;;2.70;0.57;;;11.80;95.50;;;;;;5015558;28;20052;-63
2021/10/12 03:54:02;;;;;;;5.82;0.70;;;11.80;95.60;;;;;;5019878;28;20041;-63
2021/10/12 03:56:28;;;;;;;4.47;0.70;;;11.70;95.60;;;;;;5013315;28;20080;-62
2021/10/12 03:58:54;;;;;;;5.50;1.02;;;11.70;95.70;;;;;;5028095;28;20117;-62
2021/10/12 04:01:20;;;;;;;3.15;1.02;;;11.70;95.70;;;;;;5013782;28;20026;-62
2021/10/12 04:03:48;;;;;;;4.10;0.70;;;11.70;95.80;;;;;;5010731;28;20026;-63
2021/10/12 04:06:14;;;;;;;4.68;0.90;;;11.60;95.90;;;;;;5011932;28;20022;-62
2021/10/12 04:08:40;;;;;;;4.50;0.77;;;11.60;96.10;;;;;;5012014;28;20026;-62
2021/10/12 04:11:05;;;;;;;6.45;1.00;;;11.60;96.20;;;;;;5026683;28;20026;-62
2021/10/12 04:13:31;;;;;;;3.67;0.60;;;11.60;96.30;;;;;;5026517;28;20026;-62
2021/10/12 04:15:56;;;;;;;4.45;0.70;;;11.60;96.40;;;;;;5011825;28;20104;-62
2021/10/12 04:18:22;;;;;;;4.63;0.63;;;11.60;96.50;;;;;;5020162;28;20489;-62
2021/10/12 04:20:47;;;;;;;4.28;0.98;;;11.50;96.60;;;;;;5011540;28;20018;-62
2021/10/12 04:23:13;;;;;;;7.40;1.13;;;11.50;96.80;;;;;;5010086;28;20018;-62
2021/10/12 04:25:41;;;;;;;4.90;0.70;;;11.50;96.90;;;;;;5016032;28;20026;-62
2021/10/12 04:28:11;;;;;;;5.57;0.85;;;11.50;97.00;;;;;;5012320;28;20022;-63
2021/10/12 04:30:38;;;;;;;4.63;1.13;;;11.50;97.10;;;;;;5026605;28;20057;-62
2021/10/12 04:33:03;;;;;;;2.05;0.60;;;11.50;97.20;;;;;;5019518;28;20026;-62
2021/10/12 04:35:29;;;;;;;2.28;0.85;;;11.50;97.20;;;;;;5026231;28;20421;-61
2021/10/12 04:37:54;;;;;;;2.65;0.70;;;11.50;97.30;;;;;;5011793;28;20018;-62
2021/10/12 04:40:21;;;;;;;3.88;0.85;;;11.50;97.40;;;;;;5026282;28;20367;-62
2021/10/12 04:42:46;;;;;;;2.70;0.70;;;11.50;97.50;;;;;;5011317;28;20022;-62
2021/10/12 04:45:12;;;;;;;7.07;0.80;;;11.40;97.50;;;;;;5011151;28;20080;-62
2021/10/12 04:47:39;;;;;;;6.18;0.70;;;11.40;97.50;;;;;;5014307;28;20101;-62
2021/10/12 04:50:05;;;;;;;3.92;0.75;;;11.50;97.50;;;;;;5011196;28;20042;-62
2021/10/12 04:55:24;;;;;;;3.13;1.00;;;11.40;97.50;;;;;;5016624;28;20045;-62
2021/10/12 04:57:50;;;;;;;2.42;1.00;;;11.40;97.70;;;;;;5010950;28;20014;-62
2021/10/12 05:00:15;;;;;;;3.47;1.05;;;11.40;97.80;;;;;;5026285;28;20026;-62
2021/10/12 05:02:41;;;;;;;6.88;1.60;;;11.30;97.90;;;;;;5011191;28;20025;-62
2021/10/12 05:05:07;;;;;;;6.63;0.80;;;11.30;98.00;;;;;;5013981;28;20157;-62
2021/10/12 05:07:33;;;;;;;4.88;2.03;;;11.30;98.00;;;;;;5023550;28;20163;-62
2021/10/12 05:09:58;;;;;;;3.47;1.00;;;11.30;98.00;;;;;;5013968;28;20022;-62
2021/10/12 05:12:24;;;;;;;3.92;1.10;;;11.30;98.10;;;;;;5013514;28;20033;-62
2021/10/12 05:14:49;;;;;;;3.95;0.90;;;11.30;98.20;;;;;;5012392;28;20029;-62
2021/10/12 05:17:33;;;;;;;5.18;1.45;;;11.30;98.50;;;;;;5011003;28;20025;-62
2021/10/12 05:19:58;;;;;;;4.78;1.30;;;11.30;98.30;;;;;;5013747;28;20036;-62
2021/10/12 05:22:24;;;;;;;5.03;1.40;;;11.30;98.40;;;;;;5015972;28;20486;-62
2021/10/12 05:24:49;;;;;;;6.43;1.40;;;11.30;98.50;;;;;;5013780;28;20038;-62
2021/10/12 05:27:15;;;;;;;6.53;1.50;;;11.30;98.60;;;;;;5013489;28;20040;-62
2021/10/12 05:29:41;;;;;;;6.95;1.38;;;11.30;98.70;;;;;;5023588;28;20026;-62
2021/10/12 05:32:06;;;;;;;3.38;1.30;;;11.30;98.70;;;;;;5012631;28;20113;-62
2021/10/12 05:34:32;;;;;;;4.03;1.30;;;11.30;98.80;;;;;;5011797;28;20504;-62
2021/10/12 05:36:57;;;;;;;8.10;1.70;;;11.30;98.90;;;;;;5016192;28;20037;-62
2021/10/12 05:39:23;;;;;;;6.20;1.88;;;11.20;99.00;;;;;;5015199;28;20524;-62
2021/10/12 05:41:48;;;;;;;5.90;2.35;;;11.30;99.10;;;;;;5016643;28;20064;-61
2021/10/12 05:44:14;;;;;;;2.97;1.50;;;11.30;99.10;;;;;;5015917;28;20022;-62
2021/10/12 05:46:40;;;;;;;4.35;1.30;;;11.30;99.20;;;;;;5016059;28;20477;-62
2021/10/12 05:49:06;;;;;;;7.57;1.90;;;11.30;99.20;;;;;;5015407;28;20025;-62
2021/10/12 05:51:32;;;;;;;8.85;2.10;;;11.30;99.40;;;;;;5016115;28;20390;-62
2021/10/12 05:53:59;;;;;;;5.07;3.17;;;11.30;99.40;;;;;;5029913;28;20400;-62
2021/10/12 05:56:31;;;;;;;7.13;2.05;;;11.30;99.50;;;;;;5034619;28;20455;-62
2021/10/12 05:58:56;;;;;;;6.38;2.72;;;11.30;99.60;;;;;;5034528;28;20074;-62
2021/10/12 06:01:23;;;;;;;6.50;2.65;;;11.30;99.70;;;;;;5034513;28;20026;-62
2021/10/12 06:03:49;;;;;;;5.68;2.47;;;11.20;99.70;;;;;;5034447;28;20470;-62
2021/10/12 06:06:15;;;;;;;4.28;2.22;;;11.20;99.70;;;;;;5034548;28;20056;-62
2021/10/12 06:08:42;;;;;;;5.25;2.38;;;11.30;99.80;;;;;;5034781;28;20075;-62
2021/10/12 06:11:09;;;;;;;4.22;2.40;;;11.30;99.80;;;;;;5035741;28;20040;-62
2021/10/12 06:13:36;;;;;;;8.52;3.00;;;11.30;99.80;;;;;;5035875;28;20461;-62
2021/10/12 06:16:02;;;;;;;10.65;3.20;;;11.30;99.80;;;;;;5034974;28;20034;-62
2021/10/12 06:18:28;;;;;;;5.25;2.70;;;11.30;99.90;;;;;;5035379;28;20040;-62
2021/10/12 06:20:55;;;;;;;8.65;3.42;;;11.40;99.90;;;;;;5035525;28;20074;-63
2021/10/12 06:27:26;;;;;;;5.05;2.95;;;11.40;99.90;;;;;;5026507;28;20172;-61
2021/10/12 06:29:51;;;;;;;7.25;2.95;;;11.40;99.90;;;;;;5014173;28;20033;-61
2021/10/12 06:32:17;;;;;;;6.07;2.53;;;11.40;99.90;;;;;;5035446;28;20473;-62
2021/10/12 06:35:27;;;;;;;5.50;2.70;;;11.40;99.90;;;;;;5034103;28;20477;-62
2021/10/12 06:37:51;;;;;;;4.97;2.42;;;11.40;99.90;;;;;;5030324;28;20037;-62
2021/10/12 06:40:16;;;;;;;8.57;2.70;;;11.40;99.90;;;;;;5015537;28;20026;-62
2021/10/12 06:42:42;;;;;;;4.05;2.50;;;11.40;99.90;;;;;;5032139;28;20018;-63
2021/10/12 06:45:08;;;;;;;4.75;1.95;;;11.40;99.90;;;;;;5033213;28;20111;-62
2021/10/12 06:47:33;;;;;;;5.22;2.58;;;11.50;99.90;;;;;;5030836;28;20049;-62
2021/10/12 06:49:59;;;;;;;5.13;2.60;;;11.50;99.90;;;;;;5031872;28;20048;-62
2021/10/12 06:52:24;;;;;;;7.20;2.65;;;11.50;99.90;;;;;;5030483;28;20030;-62
2021/10/12 06:54:51;;;;;;;3.70;1.90;;;11.60;99.90;;;;;;5030491;28;20388;-61
2021/10/12 06:57:17;;;;;;;4.97;2.22;;;11.60;99.90;;;;;;5028046;28;20025;-62
2021/10/12 06:59:42;;;;;;;6.43;2.60;;;11.60;99.90;;;;;;5027625;28;20067;-62
2021/10/12 07:02:08;;;;;;;5.18;2.55;;;11.60;99.80;;;;;;5024802;28;20410;-62
2021/10/12 07:04:33;;;;;;;5.47;3.00;;;11.60;99.90;;;;;;5027548;28;20037;-62
2021/10/12 07:07:00;;;;;;;7.20;2.63;;;11.70;99.90;;;;;;5031833;28;20127;-62
2021/10/12 07:09:33;;;;;;;6.57;3.05;;;11.70;99.90;;;;;;5028426;28;20025;-62
2021/10/12 07:11:59;;;;;;;8.02;3.67;;;11.70;99.90;;;;;;5021787;28;20132;-62
2021/10/12 07:14:24;;;;;;;8.00;4.28;;;11.70;99.90;;;;;;5028862;28;20452;-62
2021/10/12 07:16:50;;;;;;;4.60;3.63;;;11.60;99.90;;;;;;5024643;28;20484;-62
2021/10/12 07:19:15;;;;;;;6.72;3.60;;;11.70;99.90;;;;;;5031411;28;20108;-62
2021/10/12 07:21:55;;;;;;;7.70;3.20;;;11.70;99.90;;;;;;5031961;28;20497;-62
2021/10/12 07:24:39;;;;;;;5.20;3.10;;;11.80;99.90;;;;;;5029844;28;20057;-62
2021/10/12 07:27:07;;;;;;;5.43;3.70;;;11.80;99.90;;;;;;5027648;28;20030;-62
2021/10/12 07:29:33;;;;;;;13.65;6.47;;;11.80;99.90;;;;;;5032382;28;20388;-62
2021/10/12 07:31:59;;;;;;;10.13;6.13;;;11.80;99.90;;;;;;5034093;28;20021;-62
2021/10/12 07:34:24;;;;;;;9.18;5.70;;;11.80;99.90;;;;;;5020078;28;20018;-62
2021/10/12 07:36:50;;;;;;;8.55;6.07;;;11.80;99.90;;;;;;5014011;28;20026;-62
2021/10/12 07:39:15;;;;;;;8.18;4.78;;;11.90;99.90;;;;;;5030281;28;20378;-62
2021/10/12 07:41:41;;;;;;;7.13;4.88;;;11.90;99.90;;;;;;5026445;28;20385;-62
2021/10/12 07:44:07;;;;;;;7.13;4.68;;;11.90;99.90;;;;;;5026385;28;20371;-62
2021/10/12 07:46:32;;;;;;;5.43;3.95;;;11.90;99.90;;;;;;5029297;28;20025;-62
2021/10/12 07:48:58;;;;;;;6.15;4.05;;;12.00;99.90;;;;;;5029081;28;20025;-62
2021/10/12 07:51:28;;;;;;;9.82;4.03;;;12.00;99.90;;;;;;5030373;28;20513;-62
2021/10/12 07:53:58;;;;;;;11.10;4.20;;;12.00;99.90;;;;;;5025329;28;20039;-62
2021/10/12 07:56:36;;;;;;;8.98;4.57;;;12.00;99.90;;;;;;5028028;28;20405;-62
2021/10/12 07:59:07;;;;;;;7.43;3.30;;;12.00;99.90;;;;;;5029093;28;20084;-62
2021/10/12 08:01:34;;;;;;;5.88;3.53;;;12.10;99.90;;;;;;5018204;28;20532;-62
2021/10/12 08:04:00;;;;;;;7.43;4.03;;;12.10;99.90;;;;;;5015131;28;20025;-62
2021/10/12 08:06:26;;;;;;;7.07;4.10;;;12.10;99.90;;;;;;5025021;28;20025;-62
2021/10/12 08:08:52;;;;;;;8.07;3.88;;;12.10;99.90;;;;;;5033413;28;20033;-62
2021/10/12 08:11:22;;;;;;;8.10;3.42;;;12.20;99.90;;;;;;5031984;28;20029;-62
2021/10/12 08:13:55;;;;;;;;;;;12.20;99.90;;;;;;5033414;28;20045;-61
2021/10/12 08:16:26;;;;;;;7.93;3.50;;;12.20;99.90;;;;;;5033297;28;19909;-62
2021/10/12 08:18:58;;;;;;;6.30;3.55;;;12.20;99.90;;;;;;5033132;28;20053;-62
2021/10/12 08:21:27;;;;;;;6.80;3.35;;;12.30;99.90;;;;;;5026311;28;20022;-62
2021/10/12 08:23:53;;;;;;;9.07;3.10;;;12.30;99.90;;;;;;5030344;28;20040;-62
2021/10/12 08:26:19;;;;;;;7.65;3.30;;;12.40;99.90;;;;;;5033036;28;20037;-63
2021/10/12 08:28:45;;;;;;;5.68;2.75;;;12.50;99.90;;;;;;5031852;28;20025;-62
2021/10/12 08:31:11;;;;;;;9.68;4.03;;;12.60;99.90;;;;;;5032292;28;20049;-63
2021/10/12 08:33:47;;;;;;;7.53;3.45;;;12.60;99.90;;;;;;5032661;28;20083;-62
2021/10/12 08:36:18;;;;;;;5.60;3.08;;;12.70;99.90;;;;;;5031869;28;20021;-62
2021/10/12 08:38:44;;;;;;;5.47;2.88;;;12.80;99.90;;;;;;5029928;28;20068;-63
2021/10/12 08:41:20;;;;;;;7.32;3.13;;;12.80;99.90;;;;;;5030349;28;20048;-62
2021/10/12 08:43:54;;;;;;;6.22;2.85;;;12.90;99.90;;;;;;5031598;28;20024;-62
2021/10/12 08:46:23;;;;;;;5.70;3.25;;;12.90;99.90;;;;;;5032520;28;20023;-62
2021/10/12 08:48:48;;;;;;;8.43;3.65;;;13.00;99.90;;;;;;5031359;28;20036;-62
2021/10/12 08:51:14;;;;;;;6.57;3.30;;;13.00;99.90;;;;;;5032561;28;20053;-62
2021/10/12 08:53:39;;;;;;;5.72;3.15;;;13.00;99.90;;;;;;5033035;28;20079;-62
2021/10/12 08:56:06;;;;;;;9.82;3.30;;;13.10;99.90;;;;;;5022150;28;20210;-62
2021/10/12 08:58:32;;;;;;;5.45;3.20;;;13.10;99.90;;;;;;5011575;28;20025;-62
2021/10/12 09:01:08;;;;;;;5.22;3.28;;;13.10;99.90;;;;;;5032642;28;20030;-62
2021/10/12 09:03:50;;;;;;;7.43;3.25;;;13.10;99.90;;;;;;5030624;28;20075;-63
2021/10/12 09:06:27;;;;;;;7.13;2.90;;;13.10;99.90;;;;;;5032844;28;20053;-62
2021/10/12 09:08:57;;;;;;;6.32;2.60;;;13.10;99.90;;;;;;5032785;28;20028;-62
2021/10/12 09:11:24;;;;;;;7.20;2.40;;;13.20;99.90;;;;;;5030278;28;20501;-62
2021/10/12 09:14:02;;;;;;;7.25;3.85;;;13.20;99.90;;;;;;5030793;28;20489;-62
2021/10/12 09:16:34;;;;;;;6.45;3.05;;;13.20;99.90;;;;;;5032600;28;20026;-62
2021/10/12 09:19:28;;;;;;;6.63;2.63;;;13.30;99.90;;;;;;5026907;28;20041;-62
2021/10/12 09:29:50;;;;;;;6.33;2.10;;;13.30;99.90;;;;;;4932520;28;20037;-62
2021/10/12 09:32:16;;;;;;;9.32;2.53;;;13.30;99.90;;;;;;4997246;28;20037;-62
2021/10/12 09:34:44;;;;;;;5.35;1.95;;;13.30;99.90;;;;;;5031193;28;20097;-62
2021/10/12 09:37:10;;;;;;;7.40;2.70;;;13.30;99.90;;;;;;5032476;28;20021;-62
2021/10/12 09:39:42;;;;;;;5.40;2.13;;;13.30;99.90;;;;;;5031136;28;20048;-63
2021/10/12 09:42:23;;;;;;;5.10;1.70;;;13.30;99.90;;;;;;5032432;28;20477;-62
2021/10/12 09:48:56;;;;;;;5.43;1.88;;;13.30;99.90;;;;;;4970563;28;20077;-62
2021/10/12 09:51:22;;;;;;;5.82;1.27;;;13.30;99.90;;;;;;4952420;28;20042;-62
2021/10/12 09:53:47;;;;;;;4.43;1.30;;;13.30;99.90;;;;;;5019475;28;20034;-62
2021/10/12 09:56:13;;;;;;;4.95;1.00;;;13.30;99.90;;;;;;5014221;28;20030;-63
2021/10/12 09:58:39;;;;;;;2.88;0.73;;;13.30;99.90;;;;;;5031937;28;20068;-62
2021/10/12 10:01:09;;;;;;;4.15;0.90;;;13.40;99.90;;;;;;5030328;28;20195;-63
2021/10/12 10:03:36;;;;;;;6.50;1.23;;;13.40;99.90;;;;;;5020540;28;20509;-63
2021/10/12 10:06:09;;;;;;;3.58;0.90;;;13.50;99.90;;;;;;5024138;28;20444;-62
2021/10/12 10:08:38;;;;;;;2.83;0.80;;;13.70;99.90;;;;;;5032133;28;20105;-63
2021/10/12 10:11:05;;;;;;;2.83;0.80;;;13.80;99.90;;;;;;5032004;28;20041;-64
2021/10/12 10:14:09;;;;;;;3.45;0.70;;;14.00;99.90;;;;;;5031924;28;20355;-63
2021/10/12 10:16:37;;;;;;;0.75;0.30;;;14.30;99.90;;;;;;5030786;28;20052;-64
2021/10/12 10:22:35;;;;;;;2.15;1.45;;;17.90;96.80;;;;;;5032041;28;20572;-64
2021/10/12 10:25:09;;;;;;;1.30;0.30;;;18.10;94.90;;;;;;5034317;28;20071;-63
2021/10/12 10:27:38;;;;;;;2.05;0.38;;;18.10;95.20;;;;;;5033109;28;20026;-64
2021/10/12 10:30:19;;;;;;;0.80;0.30;;;20.90;94.30;;;;;;5035483;28;20481;-64
2021/10/12 10:32:55;;;;;;;1.58;0.30;;;23.90;89.60;;;;;;5032146;28;20120;-64
2021/10/12 10:35:50;;;;;;;;;;;;;;;;;;;;;
2021/10/12 10:58:37;;;;;;;1.25;0.40;;;30.30;58.60;;;;;;4950581;28;20050;-65
2021/10/12 11:01:03;;;;;;;1.60;0.40;;;28.90;60.60;;;;;;4968088;28;20535;-65
2021/10/12 11:03:28;;;;;;;1.40;0.40;;;27.80;60.60;;;;;;4969093;28;20031;-65
2021/10/12 11:05:55;;;;;;;0.90;0.50;;;26.90;61.90;;;;;;4953717;28;20361;-65
2021/10/12 11:08:29;;;;;;;1.15;0.30;;;26.20;62.30;;;;;;4964309;28;20030;-65
2021/10/12 11:10:57;;;;;;;0.85;0.30;;;25.50;63.50;;;;;;4956809;28;20030;-65
2021/10/12 11:13:32;;;;;;;1.48;0.30;;;24.90;64.90;;;;;;4965624;28;20034;-65
2021/10/12 11:15:58;;;;;;;1.25;0.30;;;24.30;65.40;;;;;;4971428;28;20106;-65
2021/10/12 11:18:23;;;;;;;2.15;0.50;;;23.80;66.40;;;;;;4973754;28;20027;-65
2021/10/12 11:20:53;;;;;;;1.02;0.50;;;23.40;67.10;;;;;;4974150;28;20110;-65
2021/10/12 11:24:08;;;;;;;1.23;0.32;;;23.00;67.70;;;;;;4975620;28;20502;-64
2021/10/12 11:26:17;;;;;;;1.52;0.40;;;22.50;68.50;;;;;;4945982;28;20122;-64
2021/10/12 11:28:52;;;;;;;1.42;0.30;;;22.00;69.60;;;;;;4955707;28;20364;-64
2021/10/12 11:31:19;;;;;;;1.75;0.63;;;21.70;70.20;;;;;;4964582;28;20103;-64
2021/10/12 11:33:50;;;;;;;0.98;0.30;;;21.40;70.90;;;;;;4959684;28;20038;-64
2021/10/12 11:36:26;;;;;;;2.00;0.30;;;21.20;71.30;;;;;;4968006;28;20066;-65
2021/10/12 11:39:02;;;;;;;0.80;0.50;;;20.90;72.30;;;;;;4960359;28;20038;-64
2021/10/12 11:42:16;;;;;;;1.77;0.35;;;20.80;72.20;;;;;;4960018;28;20031;-65
2021/10/12 11:44:41;;;;;;;0.93;0.20;;;20.60;72.60;;;;;;4917120;28;20034;-64
2021/10/12 11:54:25;;;;;;;0.60;0.20;;;20.20;73.50;;;;;;4926066;28;20184;-64
2021/10/12 11:56:51;;;;;;;1.35;0.30;;;20.00;74.20;;;;;;4970293;28;20057;-65
2021/10/12 11:59:17;;;;;;;1.20;0.60;;;20.20;74.20;;;;;;4954554;28;20435;-65
2021/10/12 12:01:44;;;;;;;1.58;0.30;;;20.30;73.90;;;;;;4959260;28;20027;-65
2021/10/12 12:04:24;;;;;;;1.17;0.20;;;20.60;73.70;;;;;;4973774;28;20119;-64
2021/10/12 12:06:50;;;;;;;1.13;0.43;;;20.90;72.90;;;;;;4973987;28;20027;-64
2021/10/12 12:09:18;;;;;;;2.47;0.40;;;20.50;72.50;;;;;;4973964;28;20033;-65
2021/10/12 12:14:56;;;;;;;0.15;0.15;;;20.30;73.30;;;;;;4950289;28;20067;-64
2021/10/12 12:17:24;;;;;;;0.85;0.20;;;20.70;73.10;;;;;;4974307;28;20411;-65
2021/10/12 12:19:52;;;;;;;1.08;0.28;;;21.40;72.00;;;;;;4967431;28;20033;-65
2021/10/12 12:22:49;;;;;;;0.57;0.20;;;22.20;70.20;;;;;;4973685;28;20018;-65
2021/10/12 12:25:21;;;;;;;0.47;0.17;;;22.50;68.50;;;;;;4968164;28;20034;-65
2021/10/12 12:27:53;;;;;;;0.57;0.17;;;22.00;67.90;;;;;;4974096;28;20031;-65
2021/10/12 12:30:29;;;;;;;1.15;0.30;;;21.60;69.20;;;;;;4973801;28;20077;-65
2021/10/12 12:32:57;;;;;;;0.43;0.20;;;20.90;69.10;;;;;;4969882;28;20062;-65
2021/10/12 12:35:25;;;;;;;1.25;0.25;;;20.30;70.40;;;;;;4971007;28;20023;-65
2021/10/12 12:37:59;;;;;;;1.35;0.20;;;20.00;71.10;;;;;;4973933;28;20510;-65
2021/10/12 12:40:26;;;;;;;1.38;0.30;;;20.00;71.30;;;;;;4973439;28;20487;-65
2021/10/12 12:42:52;;;;;;;0.63;0.28;;;20.00;70.30;;;;;;4974041;28;20045;-65
2021/10/12 12:45:23;;;;;;;0.57;0.17;;;19.80;68.90;;;;;;4972926;28;20483;-65
2021/10/12 12:47:55;;;;;;;0.43;0.20;;;19.60;69.30;;;;;;4973678;28;20082;-65
2021/10/12 12:50:27;;;;;;;0.45;0.20;;;19.50;69.60;;;;;;4973447;28;20031;-65
2021/10/12 12:52:54;;;;;;;0.45;0.20;;;19.40;69.90;;;;;;4969352;28;20026;-65
2021/10/12 12:55:36;;;;;;;1.30;0.20;;;19.50;69.90;;;;;;4971781;28;20027;-65
2021/10/12 12:58:10;;;;;;;1.42;0.30;;;19.90;69.10;;;;;;4971634;28;20444;-65
2021/10/12 13:00:39;;;;;;;0.70;0.22;;;21.40;68.10;;;;;;4972044;28;20467;-65
2021/10/12 13:03:05;;;;;;;0.60;0.20;;;23.40;63.50;;;;;;4961623;28;20031;-65
2021/10/12 13:05:33;;;;;;;2.25;0.47;;;24.30;60.30;;;;;;4953519;28;20027;-66
2021/10/12 13:08:00;;;;;;;0.70;0.30;;;24.20;58.30;;;;;;4955063;28;20073;-65
2021/10/12 13:10:26;;;;;;;0.52;0.20;;;24.00;57.50;;;;;;4953237;28;20035;-65
2021/10/12 13:16:13;;;;;;;1.00;0.20;;;25.80;57.40;;;;;;4962944;28;20027;-66
2021/10/12 13:18:39;;;;;;;1.17;0.30;;;27.60;55.10;;;;;;4963880;28;20114;-66
2021/10/12 13:21:04;;;;;;;2.30;0.30;;;28.20;52.90;;;;;;4961327;28;20110;-65
2021/10/12 13:23:55;;;;;;;;;;;;;;;;;;;;;
2021/10/12 13:26:24;;;;;;;1.80;0.40;;;28.70;51.00;;;;;;4971806;28;20411;-66
2021/10/12 13:28:50;;;;;;;1.38;0.30;;;29.30;51.30;;;;;;4968047;28;20113;-66
2021/10/12 13:31:16;;;;;;;1.42;0.30;;;29.30;49.70;;;;;;4967476;28;20027;-66
2021/10/12 13:33:41;;;;;;;0.70;0.30;;;29.00;47.40;;;;;;4964927;28;20031;-66
2021/10/12 13:36:08;;;;;;;0.98;0.30;;;28.40;48.50;;;;;;4969625;28;20058;-66
2021/10/12 13:38:34;;;;;;;1.60;0.30;;;28.60;48.20;;;;;;4968431;28;20029;-66
2021/10/12 13:44:09;;;;;;;1.73;0.50;;;27.90;47.50;;;;;;4961654;28;20038;-65
2021/10/12 13:46:34;;;;;;;2.47;0.50;;;26.40;48.00;;;;;;4953222;28;20023;-66
2021/10/12 13:49:00;;;;;;;2.03;0.40;;;25.30;49.10;;;;;;4950907;28;20055;-66
2021/10/12 13:52:32;;;;;;;;;;;;;;;;;;;;;
2021/10/12 13:55:06;;;;;;;2.50;0.50;;;23.30;52.00;;;;;;5110412;23;20596;-65
2021/10/12 13:58:00;;;;;;;1.02;0.30;;;22.40;53.80;;;;;;4965625;28;20069;-66
2021/10/12 14:01:04;;;;;;;2.90;0.43;;;22.10;54.70;;;;;;4959238;28;20012;-65